^^
Datos históricos de la estación: Murcia-Puente Tocinos
Diario Informe para Noviembre 16, 2019 Unidades:  Métrico    Ingés   Ambas
Diario Semanal Mensual Anual
  Máxima: Mínima: Promedio:
Temperatura: 15.4 °C 8.3 °C 11.5 °C
Punto de rocio: 1.5 °C -2.8 °C 0.2 °C
Humedad: 61% 30% 47%
Velocidad viento: 23.7km/h 3.2km/h 11.5km/h
Racha viento: 46.7km/h - -
Viento- - OSO
Presión: 1015.3 hPa 1006.5 hPa -
Precipitación: 0.0 mm    
 
 
Tabla de datos para Noviembre 16, 2019
Hora Temperatura Punto de rocio Presión Viento Velocidad viento Racha viento Humedad Intensidad lluvia(por hora) Nubes
00:04 8.3 °C 1 °C 1006.7 hPa Oeste 4.2 km/h 9.3 km/h 60% 0.0 mm
00:09 8.4 °C 0.9 °C 1006.9 hPa Oeste 4.7 km/h 9.7 km/h 59.5% 0.0 mm
00:14 8.4 °C 0.9 °C 1006.9 hPa ONO 4.9 km/h 10 km/h 59% 0.0 mm
00:19 8.6 °C 0.8 °C 1006.9 hPa Oeste 5 km/h 8.4 km/h 58.3% 0.0 mm
00:24 8.6 °C 0.8 °C 1006.9 hPa OSO 5 km/h 8 km/h 57.8% 0.0 mm
00:29 8.7 °C 0.7 °C 1006.9 hPa Oeste 5 km/h 8.4 km/h 57% 0.0 mm
00:34 8.8 °C 0.8 °C 1006.9 hPa ONO 4.3 km/h 9.5 km/h 57.3% 0.0 mm
00:39 8.8 °C 0.8 °C 1006.9 hPa Oeste 3.9 km/h 9.7 km/h 57% 0.0 mm
00:44 8.9 °C 0.8 °C 1006.9 hPa Oeste 5.1 km/h 11.1 km/h 56.9% 0.0 mm
00:49 8.8 °C 0.8 °C 1006.9 hPa Oeste 5.8 km/h 11.3 km/h 57% 0.0 mm
00:54 8.8 °C 1 °C 1006.9 hPa Oeste 5.8 km/h 9.7 km/h 57.9% 0.0 mm
00:59 8.8 °C 1 °C 1006.9 hPa Oeste 5.8 km/h 9.7 km/h 58% 0.0 mm
01:04 8.8 °C 1.1 °C 1006.9 hPa ONO 4.5 km/h 8.7 km/h 58.8% 0.0 mm
01:09 8.8 °C 1.2 °C 1006.9 hPa ONO 3.9 km/h 9.7 km/h 59% 0.0 mm
01:14 8.7 °C 1.2 °C 1006.9 hPa Oeste 5.1 km/h 9.7 km/h 59% 0.0 mm
01:19 8.8 °C 1.3 °C 1006.9 hPa Oeste 5.8 km/h 9.7 km/h 59.5% 0.0 mm
01:24 8.8 °C 1.4 °C 1006.9 hPa Oeste 5.1 km/h 9.7 km/h 60% 0.0 mm
01:29 8.8 °C 1.4 °C 1006.7 hPa Oeste 4.7 km/h 8 km/h 60% 0.0 mm
01:34 8.7 °C 1.3 °C 1006.7 hPa ONO 4.7 km/h 8.4 km/h 60% 0.0 mm
01:39 8.7 °C 1.3 °C 1006.7 hPa ONO 4.7 km/h 8.4 km/h 60% 0.0 mm
01:44 8.7 °C 1.4 °C 1006.7 hPa ONO 4.9 km/h 9.3 km/h 60% 0.0 mm
01:49 8.8 °C 1.4 °C 1006.7 hPa ONO 5 km/h 9.7 km/h 60% 0.0 mm
01:54 8.8 °C 1.3 °C 1006.7 hPa ONO 5 km/h 9.7 km/h 59.6% 0.0 mm
01:59 8.8 °C 1.2 °C 1006.5 hPa ONO 5 km/h 8 km/h 59% 0.0 mm
02:04 8.8 °C 1.3 °C 1006.5 hPa ONO 4.2 km/h 8 km/h 59% 0.0 mm
02:09 8.9 °C 1.1 °C 1006.5 hPa ONO 3.9 km/h 8 km/h 58.1% 0.0 mm
02:14 9.2 °C 1.1 °C 1006.5 hPa Sur 3.9 km/h 8.7 km/h 57.1% 0.0 mm
02:19 9.3 °C 1.2 °C 1006.5 hPa NO 3.9 km/h 9.7 km/h 57.2% 0.0 mm
02:24 9.3 °C 1.3 °C 1006.5 hPa ONO 3.4 km/h 9.7 km/h 57.2% 0.0 mm
02:29 9.2 °C 1.4 °C 1006.5 hPa ESE 3.2 km/h 9.3 km/h 58% 0.0 mm
02:34 9 °C 1.2 °C 1006.5 hPa ESE 4.2 km/h 9.7 km/h 58.2% 0.0 mm
02:39 8.7 °C 1.1 °C 1006.8 hPa Este 4.7 km/h 8 km/h 59% 0.0 mm
02:44 8.5 °C 1.1 °C 1006.8 hPa ESE 4.7 km/h 8 km/h 59.7% 0.0 mm
02:49 8.3 °C 1.2 °C 1006.8 hPa SE 4.7 km/h 8 km/h 60.6% 0.0 mm
02:54 8.3 °C 1 °C 1006.8 hPa Sur 4.7 km/h 8 km/h 60% 0.0 mm
02:59 8.3 °C 0.9 °C 1006.8 hPa SSE 4.7 km/h 9.5 km/h 59.5% 0.0 mm
03:04 8.3 °C 1 °C 1006.8 hPa SSO 4.9 km/h 9.7 km/h 60% 0.0 mm
03:09 8.3 °C 1 °C 1006.9 hPa SSO 5 km/h 8 km/h 60% 0.0 mm
03:14 8.3 °C 1 °C 1006.9 hPa SSO 4.3 km/h 8.4 km/h 60% 0.0 mm
03:19 8.5 °C 1 °C 1006.9 hPa SSO 3.9 km/h 9.5 km/h 59.2% 0.0 mm
03:24 8.7 °C 0.9 °C 1007.0 hPa SSO 5.5 km/h 11.1 km/h 58.1% 0.0 mm
03:29 8.8 °C 0.9 °C 1007.0 hPa SSO 6.5 km/h 11.3 km/h 57.6% 0.0 mm
03:34 8.8 °C 1 °C 1007.0 hPa SO 6.5 km/h 9.7 km/h 57.9% 0.0 mm
03:39 8.7 °C 0.9 °C 1007.1 hPa SSO 6.5 km/h 8.7 km/h 57.8% 0.0 mm
03:44 8.7 °C 0.8 °C 1007.1 hPa SSO 5.5 km/h 11.1 km/h 57.4% 0.0 mm
03:49 8.7 °C 0.7 °C 1007.1 hPa Sur 5 km/h 11.3 km/h 57.1% 0.0 mm
03:54 8.8 °C 0.7 °C 1007.1 hPa Sur 5.9 km/h 11.9 km/h 57% 0.0 mm
03:59 8.8 °C 0.7 °C 1007.1 hPa SSO 6.5 km/h 13 km/h 57% 0.0 mm
04:04 8.8 °C 0.7 °C 1007.1 hPa Sur 7.8 km/h 12.9 km/h 57% 0.0 mm
04:09 8.8 °C 0.7 °C 1007.1 hPa SSO 8.4 km/h 13 km/h 57% 0.0 mm
04:14 8.9 °C 0.8 °C 1007.1 hPa SSO 8.4 km/h 12.9 km/h 57% 0.0 mm
04:19 8.9 °C 0.8 °C 1007.1 hPa Sur 8.4 km/h 11.3 km/h 57% 0.0 mm
04:24 8.9 °C 0.8 °C 1007.2 hPa SSO 7.8 km/h 13 km/h 57% 0.0 mm
04:29 8.9 °C 0.7 °C 1007.2 hPa Sur 7.6 km/h 13.7 km/h 56.6% 0.0 mm
04:34 8.9 °C 0.6 °C 1007.2 hPa SSO 8.3 km/h 14.5 km/h 56% 0.0 mm
04:39 8.9 °C 0.6 °C 1007.4 hPa SSO 8.7 km/h 16.4 km/h 56% 0.0 mm
04:44 9 °C 0.6 °C 1007.4 hPa SSO 8.7 km/h 16.7 km/h 56% 0.0 mm
04:49 8.9 °C 0.6 °C 1007.4 hPa SSO 8.7 km/h 16.1 km/h 56% 0.0 mm
04:54 8.9 °C 0.8 °C 1007.5 hPa SSO 8.5 km/h 16.1 km/h 56.9% 0.0 mm
04:59 8.8 °C 0.8 °C 1007.5 hPa SSO 8.4 km/h 17.2 km/h 57.1% 0.0 mm
05:04 8.8 °C 1 °C 1007.5 hPa Sur 10.2 km/h 17.7 km/h 58% 0.0 mm
05:09 8.7 °C 0.9 °C 1007.7 hPa SSO 11.1 km/h 16.1 km/h 58% 0.0 mm
05:14 8.7 °C 1.1 °C 1007.7 hPa Sur 9.3 km/h 17.2 km/h 58.8% 0.0 mm
05:19 8.7 °C 1.1 °C 1007.7 hPa SSO 8.4 km/h 17.7 km/h 59% 0.0 mm
05:24 8.8 °C 1.2 °C 1007.8 hPa SSO 9.4 km/h 16.1 km/h 58.7% 0.0 mm
05:29 8.9 °C 1.1 °C 1007.8 hPa SSO 10 km/h 16.1 km/h 58% 0.0 mm
05:34 9 °C 1.2 °C 1007.8 hPa SO 9 km/h 16.7 km/h 58% 0.0 mm
05:39 9.2 °C 1.3 °C 1007.9 hPa SO 8.4 km/h 16.1 km/h 58% 0.0 mm
05:44 9.2 °C 1.2 °C 1007.9 hPa SSO 8.4 km/h 14.8 km/h 57.2% 0.0 mm
05:49 9.3 °C 1.2 °C 1007.9 hPa Sur 8.4 km/h 14.5 km/h 57% 0.0 mm
05:54 9.3 °C 1.2 °C 1008.2 hPa SSO 8.6 km/h 16.7 km/h 57% 0.0 mm
05:59 9.3 °C 1.2 °C 1008.2 hPa SSO 8.7 km/h 16.1 km/h 57% 0.0 mm
06:04 9.3 °C 1.2 °C 1008.2 hPa SSO 7.5 km/h 11.1 km/h 57% 0.0 mm
06:09 9.2 °C 1.3 °C 1008.3 hPa SSO 6.9 km/h 11.9 km/h 58% 0.0 mm
06:14 9.1 °C 1.3 °C 1008.3 hPa Sur 7.4 km/h 13 km/h 58% 0.0 mm
06:19 9 °C 1.2 °C 1008.3 hPa SSO 7.6 km/h 13 km/h 58.1% 0.0 mm
06:24 8.9 °C 1.3 °C 1008.4 hPa SSO 8.1 km/h 14.8 km/h 59% 0.0 mm
06:29 8.9 °C 1.3 °C 1008.4 hPa SSO 8.4 km/h 14.5 km/h 59% 0.0 mm
06:34 8.8 °C 1.2 °C 1008.4 hPa SSO 8.4 km/h 12.9 km/h 59% 0.0 mm
06:39 8.8 °C 1.2 °C 1008.7 hPa Sur 8.4 km/h 13 km/h 59% 0.0 mm
06:44 8.7 °C 1.2 °C 1008.7 hPa Sur 7.8 km/h 13 km/h 59.4% 0.0 mm
06:49 8.6 °C 1.3 °C 1008.7 hPa Sur 7.6 km/h 13.7 km/h 60% 0.0 mm
06:54 8.5 °C 1.2 °C 1009.0 hPa Sur 8.1 km/h 16.1 km/h 60% 0.0 mm
06:59 8.4 °C 1.1 °C 1009.0 hPa SSE 8.4 km/h 16.7 km/h 60% 0.0 mm
07:04 8.4 °C 1.1 °C 1009.0 hPa Sur 9.4 km/h 14.8 km/h 60% 0.0 mm
07:09 8.4 °C 1.3 °C 1009.1 hPa SSE 10 km/h 14.5 km/h 61% 0.0 mm
07:14 8.3 °C 1.2 °C 1009.1 hPa Sur 8.9 km/h 13 km/h 61% 0.0 mm
07:19 8.4 °C 1.3 °C 1009.1 hPa Sur 8.4 km/h 13 km/h 61% 0.0 mm
07:24 8.4 °C 1.1 °C 1009.4 hPa Sur 7.4 km/h 12.9 km/h 60.1% 0.0 mm
07:29 8.5 °C 1.1 °C 1009.4 hPa Sur 6.9 km/h 11.9 km/h 60% 0.0 mm
07:34 8.5 °C 1.2 °C 1009.4 hPa Sur 7.4 km/h 13 km/h 60% 0.0 mm
07:39 8.5 °C 1.2 °C 1009.5 hPa Sur 7.6 km/h 12.9 km/h 60% 0.0 mm
07:44 8.5 °C 1.2 °C 1009.5 hPa Sur 6.8 km/h 10 km/h 60% 0.0 mm
07:49 8.6 °C 1.2 °C 1009.5 hPa Sur 6.5 km/h 14 km/h 60% 0.0 mm
07:54 8.7 °C 1.3 °C 1009.7 hPa SSO 7.2 km/h 16.1 km/h 60% 0.0 mm
07:59 8.7 °C 1.3 °C 1009.7 hPa SSO 7.6 km/h 16.7 km/h 60% 0.0 mm
08:04 8.7 °C 1.2 °C 1009.7 hPa SSO 8.9 km/h 16.1 km/h 59.2% 0.0 mm
08:09 8.8 °C 1.2 °C 1010.0 hPa SSO 9.5 km/h 13 km/h 59% 0.0 mm
08:14 8.8 °C 1.2 °C 1010.0 hPa SSO 8.8 km/h 13 km/h 59% 0.0 mm
08:19 8.8 °C 1.3 °C 1010.0 hPa SSO 8.4 km/h 12.2 km/h 59% 0.0 mm
08:24 8.9 °C 1.3 °C 1010.3 hPa SO 7.4 km/h 13 km/h 58.9% 0.0 mm
08:29 8.9 °C 1.1 °C 1010.3 hPa SO 6.9 km/h 11.3 km/h 58% 0.0 mm
08:34 9.1 °C 1.2 °C 1010.3 hPa SO 6.9 km/h 10 km/h 58% 0.0 mm
08:39 9.1 °C 1.3 °C 1010.5 hPa SO 6.9 km/h 13 km/h 58% 0.0 mm
08:44 9.2 °C 1.3 °C 1010.5 hPa OSO 6.9 km/h 12.9 km/h 58% 0.0 mm
08:49 9.3 °C 1.3 °C 1010.5 hPa Oeste 6.9 km/h 18.5 km/h 57.6% 0.0 mm
08:54 9.4 °C 1.3 °C 1010.8 hPa Oeste 6.9 km/h 19.3 km/h 57% 0.0 mm
08:59 9.5 °C 1.2 °C 1010.8 hPa Oeste 6.9 km/h 23.7 km/h 56.2% 0.0 mm
09:04 9.6 °C 1.2 °C 1010.8 hPa Oeste 10.3 km/h 24.1 km/h 56% 0.0 mm
09:09 9.6 °C 1.3 °C 1011.1 hPa Oeste 11.9 km/h 24.1 km/h 56.1% 0.0 mm
09:14 9.6 °C 1.4 °C 1011.1 hPa Oeste 10.4 km/h 16.7 km/h 56.5% 0.0 mm
09:19 9.7 °C 1.5 °C 1011.1 hPa SO 9.5 km/h 16.1 km/h 57% 0.0 mm
09:24 9.8 °C 1.4 °C 1011.3 hPa OSO 7.1 km/h 9.7 km/h 56.1% 0.0 mm
09:29 9.9 °C 1.5 °C 1011.3 hPa Oeste 5.8 km/h 8 km/h 56% 0.0 mm
09:34 10.2 °C 1.5 °C 1011.3 hPa SO 4.5 km/h 15.6 km/h 54.7% 0.0 mm
09:39 10.3 °C 1.4 °C 1011.6 hPa ONO 3.9 km/h 19 km/h 54% 0.0 mm
09:44 10.2 °C 1.4 °C 1011.6 hPa Oeste 7.5 km/h 19.3 km/h 54.1% 0.0 mm
09:49 10.3 °C 1.4 °C 1011.6 hPa Oeste 9.5 km/h 25.1 km/h 54% 0.0 mm
09:54 10.3 °C 1.3 °C 1011.9 hPa OSO 11.3 km/h 29.6 km/h 53.5% 0.0 mm
09:59 10.4 °C 1.2 °C 1011.9 hPa Oeste 12.2 km/h 29.8 km/h 53.1% 0.0 mm
10:04 10.4 °C 1.3 °C 1011.9 hPa Oeste 14.6 km/h 30.6 km/h 53% 0.0 mm
10:09 10.5 °C 1.3 °C 1011.9 hPa Oeste 15.6 km/h 29 km/h 53% 0.0 mm
10:14 10.7 °C 1.4 °C 1011.9 hPa Oeste 14.6 km/h 34.3 km/h 52.7% 0.0 mm
10:19 10.8 °C 1.3 °C 1011.9 hPa Oeste 14 km/h 33.8 km/h 52% 0.0 mm
10:24 10.8 °C 1.4 °C 1011.9 hPa Oeste 16.1 km/h 33.5 km/h 52% 0.0 mm
10:29 10.9 °C 1.2 °C 1011.5 hPa Oeste 17.2 km/h 33.8 km/h 51.2% 0.0 mm
10:34 11 °C 1.3 °C 1011.5 hPa Oeste 17.7 km/h 33.3 km/h 51.1% 0.0 mm
10:39 11.2 °C 1.3 °C 1011.8 hPa Oeste 18 km/h 33.8 km/h 50.7% 0.0 mm
10:44 11.2 °C 1.2 °C 1011.8 hPa Oeste 16.8 km/h 33.5 km/h 50% 0.0 mm
10:49 11.3 °C 1.1 °C 1011.8 hPa ONO 16.1 km/h 35.2 km/h 49.5% 0.0 mm
10:54 11.4 °C 1.1 °C 1011.8 hPa ONO 19.2 km/h 35.4 km/h 49.2% 0.0 mm
10:59 11.5 °C 1.2 °C 1011.8 hPa ONO 20.9 km/h 39.6 km/h 49.2% 0.0 mm
11:04 11.6 °C 1.2 °C 1011.8 hPa Oeste 19.2 km/h 40.2 km/h 49% 0.0 mm
11:09 11.7 °C 1.2 °C 1011.9 hPa Oeste 18.4 km/h 35.9 km/h 48.7% 0.0 mm
11:14 11.8 °C 1.1 °C 1011.9 hPa Oeste 19.3 km/h 35.4 km/h 48% 0.0 mm
11:19 11.9 °C 1.2 °C 1011.9 hPa Oeste 19.8 km/h 35.4 km/h 48% 0.0 mm
11:24 12 °C 1.3 °C 1011.9 hPa Oeste 20.5 km/h 35.4 km/h 48% 0.0 mm
11:29 12.2 °C 1.4 °C 1011.9 hPa Oeste 20.9 km/h 29.8 km/h 47.6% 0.0 mm
11:34 12.3 °C 1.1 °C 1011.9 hPa ONO 18.5 km/h 37.8 km/h 46.5% 0.0 mm
11:39 12.3 °C 1.2 °C 1012.1 hPa ONO 17.2 km/h 37 km/h 46.6% 0.0 mm
11:44 12.5 °C 1.5 °C 1012.1 hPa Oeste 16.5 km/h 30.6 km/h 47% 0.0 mm
11:49 12.7 °C 1.5 °C 1012.1 hPa ONO 16.1 km/h 24.1 km/h 46.5% 0.0 mm
11:54 12.9 °C 1.4 °C 1012.1 hPa Oeste 14.1 km/h 39.6 km/h 45.6% 0.0 mm
11:59 12.9 °C 1.2 °C 1011.9 hPa OSO 13 km/h 40.2 km/h 44.8% 0.0 mm
12:04 12.9 °C 1 °C 1011.9 hPa Oeste 17 km/h 33.3 km/h 44.2% 0.0 mm
12:09 13.1 °C 1 °C 1011.9 hPa Oeste 19 km/h 38.9 km/h 43.7% 0.0 mm
12:14 13.1 °C 1.1 °C 1011.8 hPa ONO 18.4 km/h 38.6 km/h 43.9% 0.0 mm
12:19 13.3 °C 1.2 °C 1011.8 hPa Oeste 18 km/h 27.8 km/h 43.5% 0.0 mm
12:24 13.4 °C 1 °C 1011.8 hPa ONO 16.5 km/h 33.3 km/h 42.8% 0.0 mm
12:29 13.4 °C 0.9 °C 1011.7 hPa Oeste 15.6 km/h 37 km/h 42.7% 0.0 mm
12:34 13.4 °C 0.7 °C 1011.7 hPa ONO 18.5 km/h 40.7 km/h 41.8% 0.0 mm
12:39 13.4 °C 0.8 °C 1011.7 hPa ONO 20.1 km/h 40.2 km/h 42% 0.0 mm
12:44 13.6 °C 0.8 °C 1011.5 hPa Oeste 19 km/h 32.8 km/h 41.6% 0.0 mm
12:49 13.7 °C 0.7 °C 1011.5 hPa OSO 18.4 km/h 36.2 km/h 41.1% 0.0 mm
12:54 13.7 °C 0.7 °C 1011.5 hPa Oeste 18.8 km/h 37.8 km/h 41% 0.0 mm
12:59 13.7 °C 0.7 °C 1011.2 hPa Oeste 19 km/h 38.9 km/h 41% 0.0 mm
13:04 13.7 °C 0.7 °C 1011.2 hPa Oeste 19.8 km/h 38.6 km/h 41% 0.0 mm
13:09 13.9 °C 0.7 °C 1011.2 hPa ONO 20.1 km/h 37.8 km/h 40.6% 0.0 mm
13:14 13.8 °C 0.7 °C 1011.2 hPa ONO 20.1 km/h 38.9 km/h 40.7% 0.0 mm
13:19 13.8 °C 0.6 °C 1011.2 hPa Oeste 20.1 km/h 38.9 km/h 40.6% 0.0 mm
13:24 13.8 °C 0.6 °C 1011.2 hPa Oeste 21.2 km/h 38.6 km/h 40.4% 0.0 mm
13:29 14 °C 0.6 °C 1011.2 hPa ONO 21.7 km/h 42.6 km/h 40% 0.0 mm
13:34 14.1 °C 0.7 °C 1011.2 hPa Oeste 22.3 km/h 41.8 km/h 40% 0.0 mm
13:39 14.3 °C 0.8 °C 1011.2 hPa ONO 22.5 km/h 37 km/h 39.6% 0.0 mm
13:44 14.3 °C 0.5 °C 1011.0 hPa ONO 19.8 km/h 37.8 km/h 38.9% 0.0 mm
13:49 14.3 °C 0.5 °C 1011.0 hPa Oeste 18.4 km/h 37 km/h 39% 0.0 mm
13:54 14.4 °C 0.3 °C 1011.1 hPa ONO 20 km/h 41.2 km/h 38.1% 0.0 mm
13:59 14.4 °C 0.3 °C 1011.1 hPa Oeste 20.9 km/h 41.8 km/h 38.2% 0.0 mm
14:04 14.4 °C 0.2 °C 1011.1 hPa ONO 21.5 km/h 35.4 km/h 38% 0.0 mm
14:09 14.6 °C 0.4 °C 1011.2 hPa Oeste 21.7 km/h 32.2 km/h 37.8% 0.0 mm
14:14 14.8 °C 0.2 °C 1011.2 hPa Oeste 18.3 km/h 44.4 km/h 37.1% 0.0 mm
14:19 14.7 °C 0.2 °C 1011.2 hPa ONO 16.4 km/h 45.1 km/h 36.9% 0.0 mm
14:24 14.8 °C 0.2 °C 1011.2 hPa ONO 18.1 km/h 41.2 km/h 37% 0.0 mm
14:29 14.7 °C 0.2 °C 1011.1 hPa ONO 19 km/h 44.4 km/h 37% 0.0 mm
14:34 14.8 °C 0.2 °C 1011.1 hPa ONO 20.3 km/h 45.1 km/h 36.9% 0.0 mm
14:39 14.8 °C 0.1 °C 1011.1 hPa Oeste 20.9 km/h 37 km/h 36.6% 0.0 mm
14:44 15 °C 0.3 °C 1011.1 hPa Oeste 18.5 km/h 37 km/h 36.7% 0.0 mm
14:49 15.1 °C 0.1 °C 1011.1 hPa ONO 17.2 km/h 33.8 km/h 36% 0.0 mm
14:54 15 °C 0.1 °C 1011.1 hPa ONO 20.3 km/h 46.3 km/h 36% 0.0 mm
14:59 14.9 °C 0 °C 1011.1 hPa ONO 22.1 km/h 46.7 km/h 36% 0.0 mm
15:04 15.1 °C 0.1 °C 1011.1 hPa ONO 21.8 km/h 37.8 km/h 36% 0.0 mm
15:09 15.1 °C -0.3 °C 1011.1 hPa ONO 21.7 km/h 42.6 km/h 35% 0.0 mm
15:14 15.2 °C -0.2 °C 1010.9 hPa ONO 23 km/h 41.8 km/h 34.9% 0.0 mm
15:19 15.2 °C -0.4 °C 1010.9 hPa ONO 23.7 km/h 40.2 km/h 34.4% 0.0 mm
15:24 15.2 °C -0.3 °C 1011.1 hPa ONO 23.5 km/h 37 km/h 34.7% 0.0 mm
15:29 15.3 °C -0.7 °C 1011.1 hPa ONO 23.3 km/h 38.1 km/h 33.7% 0.0 mm
15:34 15.2 °C -1.2 °C 1011.1 hPa ONO 22.3 km/h 44.9 km/h 32.3% 0.0 mm
15:39 15.3 °C -1.3 °C 1011.2 hPa ONO 21.7 km/h 45.1 km/h 32% 0.0 mm
15:44 15.3 °C -1.3 °C 1011.2 hPa ONO 23 km/h 38.9 km/h 32% 0.0 mm
15:49 15.4 °C -1.5 °C 1011.2 hPa ONO 23.7 km/h 38.6 km/h 31.3% 0.0 mm
15:54 15.4 °C -1.7 °C 1011.4 hPa ONO 22.4 km/h 37 km/h 31% 0.0 mm
15:59 15.4 °C -1.9 °C 1011.4 hPa ONO 21.7 km/h 37.8 km/h 30.5% 0.0 mm
16:04 15.3 °C -2.2 °C 1011.4 hPa ONO 22 km/h 40.7 km/h 30% 0.0 mm
16:09 15.3 °C -1.9 °C 1011.5 hPa ONO 22.1 km/h 40.2 km/h 30.7% 0.0 mm
16:14 15.3 °C -1.8 °C 1011.5 hPa ONO 20.8 km/h 38.9 km/h 31% 0.0 mm
16:19 15.3 °C -1.7 °C 1011.5 hPa ONO 20.1 km/h 38.6 km/h 31% 0.0 mm
16:24 15.4 °C -1.7 °C 1011.5 hPa ONO 19 km/h 30.9 km/h 31% 0.0 mm
16:29 15.4 °C -1.7 °C 1011.5 hPa ONO 18.4 km/h 34.6 km/h 31% 0.0 mm
16:34 15.3 °C -1.7 °C 1011.5 hPa ONO 18.4 km/h 35.4 km/h 31% 0.0 mm
16:39 15.3 °C -1.8 °C 1011.8 hPa ONO 18.4 km/h 34.3 km/h 31% 0.0 mm
16:44 15.3 °C -1.8 °C 1011.8 hPa ONO 18.1 km/h 33.8 km/h 31% 0.0 mm
16:49 15.3 °C -1.9 °C 1011.8 hPa ONO 18 km/h 31.7 km/h 30.8% 0.0 mm
16:54 15.3 °C -1.8 °C 1011.9 hPa ONO 18.7 km/h 32.2 km/h 31% 0.0 mm
16:59 15.2 °C -2.2 °C 1011.9 hPa ONO 19 km/h 37 km/h 30.2% 0.0 mm
17:04 15.2 °C -2.3 °C 1011.9 hPa ONO 19 km/h 37 km/h 30% 0.0 mm
17:09 15.1 °C -2.3 °C 1012.1 hPa ONO 19 km/h 35.4 km/h 30.2% 0.0 mm
17:14 15.1 °C -2 °C 1012.1 hPa ONO 17.8 km/h 27.8 km/h 30.8% 0.0 mm
17:19 15.1 °C -2 °C 1012.1 hPa ONO 17.2 km/h 28.2 km/h 31% 0.0 mm
17:24 15 °C -2.3 °C 1012.3 hPa ONO 16.7 km/h 31.5 km/h 30.4% 0.0 mm
17:29 14.9 °C -2.6 °C 1012.3 hPa ONO 16.4 km/h 32.2 km/h 30% 0.0 mm
17:34 14.8 °C -2.6 °C 1012.3 hPa ONO 16.4 km/h 25.7 km/h 30% 0.0 mm
17:39 14.8 °C -2.7 °C 1012.6 hPa ONO 16.4 km/h 27.8 km/h 30% 0.0 mm
17:44 14.7 °C -2.7 °C 1012.6 hPa ONO 15.4 km/h 27.4 km/h 30% 0.0 mm
17:49 14.6 °C -2.8 °C 1012.6 hPa ONO 14.8 km/h 25.7 km/h 30% 0.0 mm
17:54 14.5 °C -2.7 °C 1012.9 hPa ONO 13.7 km/h 21.7 km/h 30.3% 0.0 mm
17:59 14.4 °C -2.6 °C 1012.9 hPa Oeste 13 km/h 24.1 km/h 31% 0.0 mm
18:04 14.3 °C -2.6 °C 1012.9 hPa Oeste 11.7 km/h 24.1 km/h 31% 0.0 mm
18:09 14.2 °C -2.5 °C 1013.1 hPa Oeste 11.1 km/h 20.9 km/h 31.5% 0.0 mm
18:14 14.2 °C -2.3 °C 1013.1 hPa Oeste 9.6 km/h 22.2 km/h 32% 0.0 mm
18:19 14.1 °C -2.4 °C 1013.1 hPa OSO 8.7 km/h 22.5 km/h 32% 0.0 mm
18:24 13.9 °C -2.2 °C 1013.2 hPa Oeste 8.7 km/h 22.2 km/h 32.7% 0.0 mm
18:29 13.8 °C -2.1 °C 1013.2 hPa ONO 8.7 km/h 22.5 km/h 33.2% 0.0 mm
18:34 13.7 °C -1.8 °C 1013.2 hPa ONO 9.5 km/h 24.1 km/h 34.2% 0.0 mm
18:39 13.8 °C -1.5 °C 1013.3 hPa ONO 10 km/h 29.8 km/h 35% 0.0 mm
18:44 13.9 °C -1.3 °C 1013.3 hPa ONO 14.7 km/h 30.6 km/h 35% 0.0 mm
18:49 13.9 °C -1.3 °C 1013.3 hPa Oeste 17.2 km/h 29 km/h 35% 0.0 mm
18:54 13.9 °C -1.3 °C 1013.5 hPa Oeste 16.1 km/h 27.4 km/h 35% 0.0 mm
18:59 13.9 °C -1.3 °C 1013.5 hPa Oeste 15.6 km/h 25.7 km/h 35.2% 0.0 mm
19:04 13.8 °C -1.1 °C 1013.5 hPa Oeste 13.8 km/h 25.9 km/h 36% 0.0 mm
19:09 13.7 °C -0.7 °C 1013.7 hPa Oeste 13 km/h 25.7 km/h 37% 0.0 mm
19:14 13.6 °C -0.8 °C 1013.7 hPa Oeste 13.5 km/h 29.6 km/h 37.1% 0.0 mm
19:19 13.6 °C -0.4 °C 1013.7 hPa Oeste 13.7 km/h 29 km/h 38% 0.0 mm
19:24 13.5 °C -0.6 °C 1014.0 hPa Oeste 13.7 km/h 24.1 km/h 38% 0.0 mm
19:29 13.3 °C -0.4 °C 1014.0 hPa Oeste 13.7 km/h 15.6 km/h 38.8% 0.0 mm
19:34 13.2 °C -0.5 °C 1014.0 hPa OSO 10.2 km/h 16.1 km/h 39% 0.0 mm
19:39 13 °C -0.6 °C 1014.1 hPa OSO 8.4 km/h 13 km/h 39% 0.0 mm
19:44 12.9 °C -0.7 °C 1014.1 hPa Oeste 7.1 km/h 14.8 km/h 39% 0.0 mm
19:49 12.9 °C -0.7 °C 1014.1 hPa Oeste 6.5 km/h 16.7 km/h 39% 0.0 mm
19:54 12.9 °C -0.7 °C 1014.3 hPa Oeste 7.9 km/h 16.1 km/h 39% 0.0 mm
19:59 12.8 °C -0.8 °C 1014.3 hPa OSO 8.7 km/h 22.2 km/h 39% 0.0 mm
20:04 12.9 °C -0.6 °C 1014.3 hPa Oeste 8.5 km/h 22.5 km/h 39.5% 0.0 mm
20:09 12.7 °C -0.5 °C 1014.5 hPa Oeste 8.4 km/h 16.1 km/h 40.2% 0.0 mm
20:14 12.5 °C -0.4 °C 1014.5 hPa Oeste 9.1 km/h 16.1 km/h 41% 0.0 mm
20:19 12.4 °C -0.4 °C 1014.5 hPa Oeste 9.5 km/h 16.1 km/h 41.2% 0.0 mm
20:24 12.4 °C -0.2 °C 1014.6 hPa Oeste 8.8 km/h 14.5 km/h 42% 0.0 mm
20:29 12.3 °C -0.2 °C 1014.6 hPa Oeste 8.4 km/h 13 km/h 42% 0.0 mm
20:34 12.3 °C -0.3 °C 1014.6 hPa Oeste 8.4 km/h 17.2 km/h 42% 0.0 mm
20:39 12.4 °C -0.2 °C 1014.8 hPa Oeste 8.4 km/h 24.1 km/h 42% 0.0 mm
20:44 12.4 °C -0.2 °C 1014.8 hPa Oeste 8.6 km/h 24.1 km/h 42% 0.0 mm
20:49 12.3 °C -0.3 °C 1014.8 hPa Oeste 8.7 km/h 13 km/h 42% 0.0 mm
20:54 12.3 °C -0.3 °C 1014.8 hPa Oeste 8.5 km/h 13 km/h 42% 0.0 mm
20:59 12.4 °C -0.2 °C 1014.8 hPa OSO 8.4 km/h 12.9 km/h 42% 0.0 mm
21:04 12.4 °C -0.2 °C 1014.8 hPa Oeste 7.1 km/h 15.6 km/h 42% 0.0 mm
21:09 12.4 °C -0.2 °C 1014.8 hPa Oeste 6.5 km/h 16.1 km/h 42% 0.0 mm
21:14 12.4 °C -0.2 °C 1014.7 hPa OSO 7.7 km/h 16.1 km/h 42.1% 0.0 mm
21:19 12.3 °C 0 °C 1014.7 hPa OSO 8.4 km/h 15.6 km/h 42.9% 0.0 mm
21:24 12.2 °C -0.2 °C 1014.8 hPa OSO 8.4 km/h 16.1 km/h 42.3% 0.0 mm
21:29 12.2 °C -0.3 °C 1014.8 hPa SO 8.4 km/h 14.8 km/h 42% 0.0 mm
21:34 12.2 °C -0.2 °C 1014.8 hPa Oeste 7.8 km/h 14.5 km/h 42.5% 0.0 mm
21:39 12.2 °C -0.1 °C 1014.9 hPa Oeste 7.6 km/h 16.7 km/h 43% 0.0 mm
21:44 12.2 °C -0.1 °C 1014.9 hPa OSO 7.6 km/h 16.1 km/h 42.7% 0.0 mm
21:49 12.3 °C 0 °C 1014.9 hPa OSO 7.6 km/h 17.2 km/h 42.9% 0.0 mm
21:54 12.3 °C 0 °C 1015.0 hPa OSO 8.3 km/h 17.7 km/h 43% 0.0 mm
21:59 12.2 °C 0 °C 1015.0 hPa OSO 8.7 km/h 16.7 km/h 43% 0.0 mm
22:04 12.2 °C 0 °C 1015.0 hPa OSO 8.5 km/h 16.1 km/h 43% 0.0 mm
22:09 12.1 °C -0.1 °C 1015.0 hPa OSO 8.4 km/h 14.5 km/h 43% 0.0 mm
22:14 12 °C -0.2 °C 1014.9 hPa OSO 6.7 km/h 11.3 km/h 43.2% 0.0 mm
22:19 11.9 °C 0 °C 1014.9 hPa SSO 5.8 km/h 9.7 km/h 44% 0.0 mm
22:24 11.8 °C 0 °C 1015.0 hPa Sur 4.6 km/h 8 km/h 44.3% 0.0 mm
22:29 11.6 °C 0.1 °C 1015.0 hPa SSE 3.9 km/h 8 km/h 45% 0.0 mm
22:34 11.3 °C 0.1 °C 1015.0 hPa SSE 3.9 km/h 8 km/h 46% 0.0 mm
22:39 11.1 °C 0.1 °C 1015.2 hPa SSE 3.9 km/h 8.7 km/h 46.7% 0.0 mm
22:44 10.8 °C -0.1 °C 1015.2 hPa SSO 5.1 km/h 14.8 km/h 46.9% 0.0 mm
22:49 11 °C -0.2 °C 1015.2 hPa SO 5.8 km/h 14.8 km/h 45.8% 0.0 mm
22:54 11.3 °C -0.5 °C 1015.3 hPa SSO 8.2 km/h 18.5 km/h 44.4% 0.0 mm
22:59 11.4 °C -0.4 °C 1015.3 hPa Sur 9.5 km/h 19.3 km/h 44% 0.0 mm
23:04 11.4 °C -0.7 °C 1015.3 hPa Sur 10 km/h 14.5 km/h 43.4% 0.0 mm
23:09 11.4 °C -0.8 °C 1015.3 hPa SSO 10.3 km/h 14.5 km/h 43% 0.0 mm
23:14 11.4 °C -0.9 °C 1015.3 hPa SSO 8.5 km/h 19.8 km/h 42.5% 0.0 mm
23:19 11.7 °C -1.1 °C 1015.3 hPa SO 7.6 km/h 22.2 km/h 41.3% 0.0 mm
23:24 11.8 °C -1.1 °C 1015.3 hPa SO 9.4 km/h 22.5 km/h 40.6% 0.0 mm
23:29 11.9 °C -1.3 °C 1015.1 hPa SO 10.3 km/h 22.5 km/h 40% 0.0 mm
23:34 12 °C -1.2 °C 1015.1 hPa SO 10.8 km/h 22.5 km/h 40% 0.0 mm
23:39 12 °C -1.4 °C 1015.1 hPa SO 11.1 km/h 24.1 km/h 39.5% 0.0 mm
23:44 11.9 °C -1.6 °C 1015.1 hPa OSO 12.4 km/h 24.1 km/h 39.1% 0.0 mm
23:49 11.8 °C -1.4 °C 1015.1 hPa OSO 13 km/h 23.3 km/h 39.9% 0.0 mm
23:54 11.8 °C -1.4 °C 1015.1 hPa OSO 13 km/h 24.1 km/h 40% 0.0 mm
23:59 11.7 °C -1.4 °C 1015.0 hPa OSO 13 km/h 24.1 km/h 40% 0.0 mm
Murcia-Puente Tocinos, España
Compliments of Weather Underground - 3 mb

La estación de MeteoMurcia.com, publica sus datos en los siguientes proyectos:

Weather Underground PWS IMURCIAP2 Meteoclimatic www.awekas.at

W3Counter
Web Analytics